Time;durP1;ratioP1;P1;durP2;ratioP2;P2;SDS_P1;SDS_P2;PMS_P1;PMS_P2;Temp;Humidity;BMP_temperature;BMP_pressure;BME280_temperature;BME280_humidity;BME280_pressure;Samples;Min_cycle;Max_cycle;Signal;HPM_P1;HPM_P2
2022/03/24 00:00:12;;;;;;;5.75;5.22;;;-2.80;99.90;;;;;;5072745;27;20618;-59
2022/03/24 00:02:51;;;;;;;5.70;5.15;;;-2.90;99.90;;;;;;5063549;27;20565;-59
2022/03/24 00:05:31;;;;;;;5.15;4.75;;;-3.00;99.90;;;;;;5081633;27;20605;-59
2022/03/24 00:08:11;;;;;;;5.35;4.95;;;-3.00;99.90;;;;;;5064662;27;20551;-61
2022/03/24 00:10:51;;;;;;;6.25;5.75;;;-3.00;99.90;;;;;;5084122;27;20573;-60
2022/03/24 00:13:30;;;;;;;6.07;5.57;;;-3.00;99.90;;;;;;5082927;28;21019;-59
2022/03/24 00:16:10;;;;;;;6.18;5.68;;;-3.00;99.90;;;;;;5081450;28;20578;-60
2022/03/24 00:18:50;;;;;;;5.78;5.20;;;-3.00;99.90;;;;;;5071943;28;20572;-59
2022/03/24 00:21:30;;;;;;;5.43;5.03;;;-3.10;99.90;;;;;;5093827;27;20572;-59
2022/03/24 00:24:10;;;;;;;4.93;4.50;;;-3.10;99.90;;;;;;5083324;27;20581;-60
2022/03/24 00:26:49;;;;;;;5.85;5.35;;;-3.20;99.90;;;;;;5104409;27;20574;-60
2022/03/24 00:29:29;;;;;;;5.15;4.65;;;-3.20;99.90;;;;;;5083514;28;20882;-59
2022/03/24 00:32:10;;;;;;;6.13;5.63;;;-3.30;99.90;;;;;;5085191;27;20696;-60
2022/03/24 00:34:49;;;;;;;5.80;5.30;;;-3.40;99.90;;;;;;5068969;27;20549;-61
2022/03/24 00:37:29;;;;;;;5.53;5.13;;;-3.40;99.90;;;;;;5124050;27;20842;-59
2022/03/24 00:40:09;;;;;;;5.18;4.75;;;-3.30;99.90;;;;;;5077654;27;20624;-59
2022/03/24 00:42:50;;;;;;;5.70;5.07;;;-3.30;99.90;;;;;;5085166;28;20551;-59
2022/03/24 00:45:30;;;;;;;8.02;4.90;;;-3.30;99.90;;;;;;5083757;27;20572;-59
2022/03/24 00:48:10;;;;;;;5.63;5.10;;;-3.30;99.90;;;;;;5104139;27;21077;-59
2022/03/24 00:50:49;;;;;;;5.65;5.25;;;-3.40;99.90;;;;;;5104480;27;20674;-60
2022/03/24 00:53:29;;;;;;;5.72;4.60;;;-3.40;99.90;;;;;;5087597;27;20711;-59
2022/03/24 00:56:10;;;;;;;5.78;5.18;;;-3.50;99.90;;;;;;5083490;28;20552;-59
2022/03/24 00:58:49;;;;;;;5.65;5.15;;;-3.50;99.90;;;;;;5105443;27;20566;-60
2022/03/24 01:01:29;;;;;;;6.50;4.65;;;-3.50;99.90;;;;;;5144402;27;21058;-59
2022/03/24 01:04:09;;;;;;;5.00;4.60;;;-3.60;99.90;;;;;;5103693;27;20989;-59
2022/03/24 01:06:48;;;;;;;5.03;4.63;;;-3.60;99.90;;;;;;5081540;27;21375;-59
2022/03/24 01:09:28;;;;;;;5.60;5.10;;;-3.60;99.90;;;;;;5084435;27;20834;-60
2022/03/24 01:12:09;;;;;;;5.30;4.90;;;-3.60;99.90;;;;;;5100998;27;22068;-59
2022/03/24 01:14:49;;;;;;;5.53;5.13;;;-3.60;99.90;;;;;;5151051;27;20550;-59
2022/03/24 01:17:29;;;;;;;6.57;4.88;;;-3.60;99.90;;;;;;5133847;27;20552;-60
2022/03/24 01:20:11;;;;;;;5.10;4.70;;;-3.70;99.90;;;;;;5097224;27;20546;-61
2022/03/24 01:22:50;;;;;;;6.05;5.55;;;-3.70;99.90;;;;;;5139058;27;20551;-60
2022/03/24 01:25:30;;;;;;;5.40;5.00;;;-3.70;99.90;;;;;;5070251;27;20971;-59
2022/03/24 01:28:10;;;;;;;6.55;6.05;;;-3.70;99.90;;;;;;5103055;27;20537;-59
2022/03/24 01:30:50;;;;;;;6.10;5.68;;;-3.70;99.90;;;;;;5114632;27;20691;-59
2022/03/24 01:33:30;;;;;;;6.15;5.65;;;-3.70;99.90;;;;;;5071141;28;20989;-60
2022/03/24 01:36:11;;;;;;;6.13;5.43;;;-3.70;99.90;;;;;;5115951;27;20559;-61
2022/03/24 01:38:51;;;;;;;5.32;4.93;;;-3.80;99.90;;;;;;5142094;27;20886;-59
2022/03/24 01:41:31;;;;;;;5.53;5.13;;;-3.80;99.90;;;;;;5130566;27;20555;-59
2022/03/24 01:44:23;;;;;;;5.70;5.28;;;-3.70;99.90;;;;;;5083527;28;20555;-60
2022/03/24 01:47:05;;;;;;;6.07;5.53;;;-3.80;99.90;;;;;;5082692;27;21129;-59
2022/03/24 01:49:48;;;;;;;5.60;4.85;;;-3.80;99.90;;;;;;5080728;28;20558;-60
2022/03/24 01:52:28;;;;;;;5.55;5.15;;;-3.80;99.90;;;;;;5084051;27;20604;-59
2022/03/24 01:55:11;;;;;;;7.07;6.47;;;-3.80;99.90;;;;;;5079042;27;20590;-60
2022/03/24 01:57:50;;;;;;;6.75;6.15;;;-3.80;99.90;;;;;;5083438;27;20573;-59
2022/03/24 02:00:29;;;;;;;7.25;6.55;;;-3.80;99.90;;;;;;5098284;27;21109;-60
2022/03/24 02:03:09;;;;;;;6.55;5.97;;;-3.70;99.90;;;;;;5082967;27;20539;-59
2022/03/24 02:05:49;;;;;;;7.43;5.88;;;-3.60;99.90;;;;;;5105291;27;20569;-59
2022/03/24 02:08:38;;;;;;;6.10;5.47;;;-3.50;99.90;;;;;;5118742;27;20568;-60
2022/03/24 02:11:17;;;;;;;6.88;6.35;;;-3.50;99.90;;;;;;5083299;28;20684;-59
2022/03/24 02:13:57;;;;;;;5.43;4.97;;;-3.50;99.90;;;;;;5083937;28;21181;-60
2022/03/24 02:16:38;;;;;;;6.53;6.03;;;-3.60;99.90;;;;;;5125540;27;20540;-60
2022/03/24 02:19:20;;;;;;;6.30;5.80;;;-3.70;99.90;;;;;;5079056;27;20599;-59
2022/03/24 02:22:10;;;;;;;5.97;5.47;;;-3.70;99.90;;;;;;5083446;27;20574;-60
2022/03/24 02:24:51;;;;;;;5.65;4.93;;;-3.80;99.90;;;;;;5098924;27;21010;-60
2022/03/24 02:27:30;;;;;;;6.13;5.63;;;-3.50;99.90;;;;;;5084622;28;20546;-59
2022/03/24 02:30:11;;;;;;;6.22;5.63;;;-3.50;99.90;;;;;;5083476;28;20668;-60
2022/03/24 02:32:50;;;;;;;6.72;6.13;;;-3.60;99.90;;;;;;5083215;27;20595;-59
2022/03/24 02:35:29;;;;;;;6.05;5.50;;;-3.70;99.90;;;;;;5101679;27;21045;-60
2022/03/24 02:38:09;;;;;;;6.43;5.82;;;-3.80;99.90;;;;;;5062353;28;21182;-59
2022/03/24 02:40:51;;;;;;;7.35;5.32;;;-3.80;99.90;;;;;;5083947;27;20573;-59
2022/03/24 02:43:31;;;;;;;6.53;5.93;;;-3.90;99.90;;;;;;5102564;27;20580;-59
2022/03/24 02:46:10;;;;;;;6.03;5.40;;;-3.90;99.90;;;;;;5091452;27;20671;-59
2022/03/24 02:48:50;;;;;;;6.22;5.75;;;-3.90;99.90;;;;;;5083804;27;20566;-60
2022/03/24 02:51:33;;;;;;;6.68;6.18;;;-3.90;99.90;;;;;;5104607;27;20580;-61
2022/03/24 02:54:12;;;;;;;6.72;6.22;;;-3.80;99.90;;;;;;5084671;27;20974;-60
2022/03/24 02:56:51;;;;;;;6.90;6.30;;;-3.80;99.90;;;;;;5104460;27;20542;-59
2022/03/24 02:59:31;;;;;;;6.63;6.00;;;-3.80;99.90;;;;;;5084243;27;20561;-60
2022/03/24 03:02:15;;;;;;;8.02;7.22;;;-3.90;99.90;;;;;;5084785;27;20553;-59
2022/03/24 03:04:54;;;;;;;7.10;6.43;;;-3.90;99.90;;;;;;5120384;27;20574;-59
2022/03/24 03:07:34;;;;;;;9.35;8.43;;;-4.00;99.90;;;;;;5103896;27;20571;-60
2022/03/24 03:10:14;;;;;;;9.23;8.32;;;-4.10;99.90;;;;;;5083313;27;21087;-60
2022/03/24 03:12:54;;;;;;;8.93;8.13;;;-4.10;99.90;;;;;;5084236;27;21149;-59
2022/03/24 03:15:35;;;;;;;9.25;8.35;;;-4.00;99.90;;;;;;5104839;27;20550;-59
2022/03/24 03:18:15;;;;;;;8.15;7.47;;;-3.90;99.90;;;;;;5101734;27;21029;-60
2022/03/24 03:20:54;;;;;;;9.98;8.98;;;-3.90;99.90;;;;;;5154822;27;20711;-60
2022/03/24 03:23:35;;;;;;;11.32;8.40;;;-3.90;99.90;;;;;;5078141;27;20568;-60
2022/03/24 03:26:17;;;;;;;9.93;9.02;;;-3.90;99.90;;;;;;5105618;27;20549;-59
2022/03/24 03:28:56;;;;;;;9.25;8.35;;;-4.00;99.90;;;;;;5123050;27;20556;-60
2022/03/24 03:31:36;;;;;;;9.65;8.85;;;-3.90;99.90;;;;;;5109089;27;20545;-59
2022/03/24 03:34:16;;;;;;;10.95;9.23;;;-3.90;99.90;;;;;;5082851;27;20585;-60
2022/03/24 03:36:56;;;;;;;9.95;8.93;;;-3.80;99.90;;;;;;5104400;27;20582;-60
2022/03/24 03:39:36;;;;;;;11.15;9.95;;;-3.80;99.90;;;;;;5083265;27;20564;-60
2022/03/24 03:42:17;;;;;;;9.48;8.65;;;-3.90;99.90;;;;;;5084783;27;20577;-59
2022/03/24 03:44:57;;;;;;;9.07;8.18;;;-3.90;99.90;;;;;;5105183;27;20579;-60
2022/03/24 03:47:36;;;;;;;8.57;7.88;;;-4.00;99.90;;;;;;5099934;27;21102;-59
2022/03/24 03:50:16;;;;;;;10.27;9.35;;;-4.20;99.90;;;;;;5066150;28;20595;-60
2022/03/24 03:52:56;;;;;;;10.25;9.25;;;-4.20;99.90;;;;;;5156685;27;20550;-59
2022/03/24 03:55:36;;;;;;;10.70;8.95;;;-4.20;99.90;;;;;;5104955;27;20567;-59
2022/03/24 03:58:15;;;;;;;10.93;9.65;;;-4.20;99.90;;;;;;5125293;27;20536;-59
2022/03/24 04:00:56;;;;;;;9.88;8.55;;;-4.20;99.90;;;;;;5104718;27;20551;-60
2022/03/24 04:03:39;;;;;;;8.82;8.02;;;-4.30;99.90;;;;;;5140381;27;20563;-59
2022/03/24 04:06:18;;;;;;;10.02;9.02;;;-4.40;99.90;;;;;;5083525;27;20977;-59
2022/03/24 04:08:58;;;;;;;10.07;9.10;;;-4.50;99.90;;;;;;5084330;27;21144;-58
2022/03/24 04:11:38;;;;;;;10.55;9.63;;;-4.50;99.90;;;;;;5103452;27;20566;-59
2022/03/24 04:14:18;;;;;;;11.45;9.25;;;-4.40;99.90;;;;;;5103503;27;21048;-61
2022/03/24 04:16:58;;;;;;;10.23;8.95;;;-4.20;99.90;;;;;;5082825;28;20568;-60
2022/03/24 04:19:39;;;;;;;10.40;8.60;;;-4.20;99.90;;;;;;5083825;28;20687;-60
2022/03/24 04:22:19;;;;;;;10.70;9.68;;;-4.30;99.90;;;;;;5104861;27;20546;-59
2022/03/24 04:24:59;;;;;;;9.77;8.45;;;-4.40;99.90;;;;;;5125635;27;21145;-59
2022/03/24 04:27:38;;;;;;;12.35;9.68;;;-4.50;99.90;;;;;;5083952;28;21221;-59
2022/03/24 04:30:18;;;;;;;10.13;9.13;;;-4.50;99.90;;;;;;5083852;27;20543;-59
2022/03/24 04:32:58;;;;;;;10.07;9.18;;;-4.60;99.90;;;;;;5102394;27;20562;-59
2022/03/24 04:35:38;;;;;;;10.27;9.38;;;-4.60;99.90;;;;;;5124339;27;20531;-59
2022/03/24 04:38:18;;;;;;;9.95;8.88;;;-4.60;99.90;;;;;;5103002;27;20890;-59
2022/03/24 04:40:58;;;;;;;11.07;9.98;;;-4.50;99.90;;;;;;5084142;28;21096;-59
2022/03/24 04:43:37;;;;;;;10.13;9.13;;;-4.50;99.90;;;;;;5105069;27;20558;-59
2022/03/24 04:46:18;;;;;;;11.15;9.00;;;-4.60;99.90;;;;;;5084984;27;20561;-60
2022/03/24 04:48:57;;;;;;;11.38;9.55;;;-4.60;99.90;;;;;;5105669;27;20537;-60
2022/03/24 04:51:37;;;;;;;10.48;9.38;;;-4.60;99.90;;;;;;5084801;27;20567;-60
2022/03/24 04:54:17;;;;;;;8.95;8.15;;;-4.50;99.90;;;;;;5084688;28;21017;-58
2022/03/24 04:56:57;;;;;;;9.35;8.35;;;-4.50;99.90;;;;;;5082681;27;20540;-59
2022/03/24 04:59:36;;;;;;;11.45;8.77;;;-4.50;99.90;;;;;;5083913;28;20663;-60
2022/03/24 05:02:17;;;;;;;8.63;7.72;;;-4.30;99.90;;;;;;5083241;27;20601;-59
2022/03/24 05:04:56;;;;;;;8.77;7.88;;;-4.30;99.90;;;;;;5082058;27;20591;-59
2022/03/24 05:07:36;;;;;;;9.60;8.70;;;-4.30;99.90;;;;;;5103848;27;21016;-59
2022/03/24 05:10:16;;;;;;;8.90;8.00;;;-4.50;99.90;;;;;;5138048;27;20542;-60
2022/03/24 05:12:55;;;;;;;9.23;8.32;;;-4.60;99.90;;;;;;5105309;27;20550;-59
2022/03/24 05:15:35;;;;;;;8.50;7.70;;;-4.60;99.90;;;;;;5080760;28;20680;-60
2022/03/24 05:18:15;;;;;;;9.88;8.27;;;-4.60;99.90;;;;;;5124066;27;20548;-59
2022/03/24 05:20:55;;;;;;;9.85;8.35;;;-4.60;99.90;;;;;;5082820;27;20577;-60
2022/03/24 05:23:46;;;;;;;12.30;9.97;;;-4.50;99.90;;;;;;5096970;27;20489;-59
2022/03/24 05:26:39;;;;;;;11.00;9.88;;;-4.50;99.90;;;;;;5105006;27;20541;-61
2022/03/24 05:29:18;;;;;;;11.45;10.32;;;-4.40;99.90;;;;;;5145648;27;20530;-59
2022/03/24 05:31:58;;;;;;;14.93;11.52;;;-4.20;99.90;;;;;;5125608;27;20544;-59
2022/03/24 05:34:37;;;;;;;13.30;10.55;;;-4.20;99.90;;;;;;5084740;27;20573;-59
2022/03/24 05:37:17;;;;;;;12.23;9.52;;;-4.00;99.90;;;;;;5082786;28;21035;-60
2022/03/24 05:39:57;;;;;;;16.00;10.20;;;-3.80;99.90;;;;;;5082820;27;20551;-58
2022/03/24 05:42:37;;;;;;;17.92;11.85;;;-3.40;99.90;;;;;;5084124;28;20671;-60
2022/03/24 05:45:17;;;;;;;17.15;11.50;;;-3.30;99.90;;;;;;5122543;27;20589;-60
2022/03/24 05:47:57;;;;;;;14.95;9.85;;;-3.20;99.90;;;;;;5146649;27;20531;-59
2022/03/24 05:50:37;;;;;;;13.32;10.70;;;-3.20;99.90;;;;;;5104506;27;21054;-58
2022/03/24 05:53:18;;;;;;;11.65;9.65;;;-3.10;99.90;;;;;;5078316;28;20714;-60
2022/03/24 05:55:58;;;;;;;13.75;10.38;;;-3.10;99.90;;;;;;5103693;27;20567;-60
2022/03/24 05:58:37;;;;;;;13.00;10.00;;;-3.00;99.90;;;;;;5076590;27;20621;-59
2022/03/24 06:01:18;;;;;;;13.93;10.45;;;-2.90;99.90;;;;;;5103262;27;20634;-58
2022/03/24 06:04:00;;;;;;;12.85;10.38;;;-2.80;99.90;;;;;;5108953;27;20565;-59
2022/03/24 06:06:39;;;;;;;13.57;10.13;;;-2.70;99.90;;;;;;5104042;27;20572;-61
2022/03/24 06:09:18;;;;;;;10.65;9.65;;;-2.60;99.90;;;;;;5102072;27;20643;-60
2022/03/24 06:12:02;;;;;;;10.05;8.98;;;-2.50;99.90;;;;;;5084160;28;20993;-59
2022/03/24 06:14:43;;;;;;;11.30;10.02;;;-2.40;99.90;;;;;;5088325;27;20680;-59
2022/03/24 06:17:23;;;;;;;10.13;8.88;;;-2.30;99.90;;;;;;5103699;27;20585;-59
2022/03/24 06:20:03;;;;;;;9.73;8.77;;;-2.20;99.90;;;;;;5103658;27;20579;-58
2022/03/24 06:22:48;;;;;;;10.88;9.38;;;-2.00;99.90;;;;;;5084247;27;21013;-58
2022/03/24 06:25:27;;;;;;;11.60;9.50;;;-1.80;99.90;;;;;;5124336;27;20556;-59
2022/03/24 06:28:08;;;;;;;10.73;9.80;;;-1.60;99.90;;;;;;5100950;27;20575;-59
2022/03/24 06:30:47;;;;;;;10.35;9.38;;;-1.50;99.90;;;;;;5149557;27;20567;-59
2022/03/24 06:33:26;;;;;;;12.18;9.88;;;-1.30;99.90;;;;;;5083693;28;21196;-58
2022/03/24 06:36:08;;;;;;;11.40;10.50;;;-1.20;99.90;;;;;;5105061;27;20538;-59
2022/03/24 06:38:48;;;;;;;10.98;10.02;;;-1.10;99.90;;;;;;5083741;28;20552;-60
2022/03/24 06:41:27;;;;;;;10.30;9.50;;;-0.90;99.90;;;;;;5084755;28;21367;-60
2022/03/24 06:44:07;;;;;;;10.55;9.23;;;-0.80;99.90;;;;;;5100211;27;20699;-59
2022/03/24 06:46:48;;;;;;;10.77;9.77;;;-0.80;99.90;;;;;;5135702;27;20535;-59
2022/03/24 06:49:27;;;;;;;10.43;9.55;;;-0.70;99.90;;;;;;5082328;27;20953;-58
2022/03/24 06:52:08;;;;;;;10.48;9.65;;;-0.60;99.90;;;;;;5084835;27;20573;-59
2022/03/24 06:54:48;;;;;;;10.65;8.93;;;-0.50;99.90;;;;;;5104661;27;20677;-59
2022/03/24 06:57:28;;;;;;;9.55;8.82;;;-0.40;99.90;;;;;;5103389;27;20657;-60
2022/03/24 07:00:13;;;;;;;10.20;9.30;;;-0.30;99.90;;;;;;5104087;27;20602;-60
2022/03/24 07:02:52;;;;;;;9.88;9.18;;;-0.10;99.90;;;;;;5084795;27;21002;-60
2022/03/24 07:05:33;;;;;;;10.48;9.68;;;-0.10;99.90;;;;;;5141905;27;20556;-61
2022/03/24 07:08:12;;;;;;;9.65;8.85;;;0.00;99.90;;;;;;5082749;28;20680;-60
2022/03/24 07:10:52;;;;;;;10.23;9.32;;;0.10;99.90;;;;;;5104251;27;20563;-60
2022/03/24 07:13:32;;;;;;;10.60;9.63;;;0.10;99.90;;;;;;5105028;27;21086;-58
2022/03/24 07:16:12;;;;;;;11.23;10.20;;;0.20;99.90;;;;;;5085303;27;20671;-58
2022/03/24 07:18:52;;;;;;;10.98;10.18;;;0.20;99.90;;;;;;5084491;28;20527;-59
2022/03/24 07:21:31;;;;;;;11.18;10.25;;;0.40;99.90;;;;;;5084473;27;20531;-59
2022/03/24 07:24:11;;;;;;;11.45;9.90;;;0.60;99.90;;;;;;5081575;27;20565;-60
2022/03/24 07:26:51;;;;;;;12.27;11.15;;;0.80;99.90;;;;;;5104624;27;21066;-61
2022/03/24 07:29:31;;;;;;;12.25;11.23;;;1.10;99.90;;;;;;5083463;27;20548;-58
2022/03/24 07:32:11;;;;;;;11.90;10.95;;;1.30;99.90;;;;;;5085792;22;20619;-60
2022/03/24 07:34:50;;;;;;;13.73;11.82;;;1.50;99.90;;;;;;5084768;28;20671;-60
2022/03/24 07:37:31;;;;;;;12.70;11.60;;;1.60;99.90;;;;;;5084957;28;20675;-60
2022/03/24 07:40:11;;;;;;;13.65;12.45;;;1.80;99.90;;;;;;5083662;28;20676;-59
2022/03/24 07:42:52;;;;;;;13.07;11.98;;;1.90;99.90;;;;;;5105473;27;20932;-60
2022/03/24 07:45:37;;;;;;;13.65;12.38;;;2.10;99.90;;;;;;5081520;28;20864;-60
2022/03/24 07:48:25;;;;;;;14.52;13.20;;;2.30;99.90;;;;;;5083225;28;20672;-61
2022/03/24 07:51:04;;;;;;;13.57;12.25;;;2.50;99.90;;;;;;5078013;27;20565;-60
2022/03/24 07:53:59;;;;;;;14.70;13.13;;;2.70;99.90;;;;;;5085104;28;20543;-61
2022/03/24 07:56:39;;;;;;;13.98;12.88;;;2.90;99.90;;;;;;5083533;28;21244;-61
2022/03/24 07:59:20;;;;;;;13.23;11.93;;;3.10;99.90;;;;;;5084267;27;20555;-60
2022/03/24 08:01:59;;;;;;;14.52;12.98;;;3.40;99.90;;;;;;5085335;27;20585;-61
2022/03/24 08:04:39;;;;;;;13.35;12.20;;;3.60;99.90;;;;;;5146406;27;21107;-60
2022/03/24 08:07:19;;;;;;;13.65;12.32;;;3.80;99.90;;;;;;5105836;27;20545;-60
2022/03/24 08:09:59;;;;;;;14.43;13.15;;;4.10;99.90;;;;;;5084077;27;20573;-60
2022/03/24 08:12:38;;;;;;;16.45;12.95;;;4.40;99.90;;;;;;5105435;27;21060;-60
2022/03/24 08:15:18;;;;;;;14.50;13.05;;;4.60;99.90;;;;;;5084615;27;20552;-60
2022/03/24 08:17:58;;;;;;;13.98;12.57;;;4.80;99.90;;;;;;5085309;27;20555;-60
2022/03/24 08:20:39;;;;;;;13.98;12.57;;;5.00;99.90;;;;;;5104860;27;21073;-59
2022/03/24 08:23:20;;;;;;;14.55;13.05;;;5.30;99.90;;;;;;5105382;27;20546;-60
2022/03/24 08:26:01;;;;;;;14.02;12.73;;;5.50;99.90;;;;;;5105301;27;20541;-60
2022/03/24 08:28:40;;;;;;;14.20;12.98;;;5.70;99.90;;;;;;5105165;27;20564;-60
2022/03/24 08:31:20;;;;;;;14.05;12.75;;;5.90;99.90;;;;;;5105127;27;20553;-59
2022/03/24 08:34:02;;;;;;;14.55;13.07;;;6.10;99.90;;;;;;5082104;27;20568;-60
2022/03/24 08:36:42;;;;;;;15.82;12.77;;;6.30;99.90;;;;;;5084010;27;20564;-61
2022/03/24 08:39:21;;;;;;;15.32;13.60;;;6.40;99.90;;;;;;5081830;27;20597;-60
2022/03/24 08:42:02;;;;;;;14.50;13.23;;;6.70;99.90;;;;;;5104910;27;20549;-60
2022/03/24 08:44:41;;;;;;;15.57;13.00;;;6.90;99.90;;;;;;5104772;27;20634;-60
2022/03/24 08:47:21;;;;;;;15.38;13.88;;;7.10;99.90;;;;;;5084938;27;20543;-59
2022/03/24 08:50:01;;;;;;;14.65;13.23;;;7.20;99.90;;;;;;5103775;27;20659;-59
2022/03/24 08:52:42;;;;;;;15.48;13.95;;;7.30;99.90;;;;;;5146452;27;20554;-60
2022/03/24 08:55:23;;;;;;;16.20;14.52;;;7.50;99.90;;;;;;5146479;27;20539;-60
2022/03/24 08:58:02;;;;;;;16.00;14.50;;;7.60;99.90;;;;;;5083114;28;20688;-60
2022/03/24 09:00:42;;;;;;;14.75;13.55;;;7.80;99.90;;;;;;5104492;27;20558;-60
2022/03/24 09:03:22;;;;;;;14.65;13.45;;;7.90;99.90;;;;;;5104180;27;20550;-60
2022/03/24 09:06:01;;;;;;;14.20;12.90;;;8.10;99.90;;;;;;5104298;27;20538;-59
2022/03/24 09:08:41;;;;;;;14.68;13.48;;;8.30;99.90;;;;;;5103212;27;20579;-59
2022/03/24 09:11:21;;;;;;;15.90;14.35;;;8.50;99.90;;;;;;5074964;27;20583;-59
2022/03/24 09:14:01;;;;;;;15.63;14.20;;;8.70;99.90;;;;;;5084070;27;20732;-60
2022/03/24 09:16:41;;;;;;;14.98;13.57;;;8.90;99.90;;;;;;5084876;27;20532;-59
2022/03/24 09:19:20;;;;;;;14.55;13.15;;;9.00;99.90;;;;;;5083431;27;20588;-60
2022/03/24 09:22:00;;;;;;;16.35;14.63;;;9.10;99.90;;;;;;5085119;27;20636;-60
2022/03/24 09:24:40;;;;;;;15.10;13.65;;;9.30;99.90;;;;;;5101690;27;21162;-59
2022/03/24 09:27:20;;;;;;;17.42;13.85;;;9.40;99.90;;;;;;5082740;28;20576;-59
2022/03/24 09:30:00;;;;;;;16.98;15.32;;;9.60;99.90;;;;;;5123792;27;20536;-60
2022/03/24 09:32:40;;;;;;;15.00;13.60;;;9.70;99.90;;;;;;5104961;27;20554;-59
2022/03/24 09:35:20;;;;;;;15.40;13.63;;;9.80;99.90;;;;;;5104759;27;21074;-59
2022/03/24 09:37:59;;;;;;;15.35;13.85;;;10.00;99.90;;;;;;5084290;27;21152;-59
2022/03/24 09:40:40;;;;;;;16.30;14.55;;;10.20;99.90;;;;;;5084037;27;20596;-60
2022/03/24 09:43:20;;;;;;;15.02;13.43;;;10.40;99.90;;;;;;5083461;27;20573;-59
2022/03/24 09:46:02;;;;;;;15.77;14.38;;;10.50;99.90;;;;;;5125009;27;20548;-59
2022/03/24 09:48:43;;;;;;;15.18;13.77;;;10.70;99.90;;;;;;5103208;27;20566;-60
2022/03/24 09:51:25;;;;;;;14.50;13.20;;;10.90;99.90;;;;;;5075281;28;20706;-60
2022/03/24 09:54:05;;;;;;;17.73;14.85;;;11.20;99.90;;;;;;5084288;27;20584;-60
2022/03/24 09:56:44;;;;;;;19.00;13.45;;;11.40;99.90;;;;;;5144650;27;20550;-59
2022/03/24 09:59:24;;;;;;;19.83;14.82;;;11.50;99.90;;;;;;5083496;28;20547;-60
2022/03/24 10:02:06;;;;;;;16.83;13.60;;;11.60;99.90;;;;;;5125468;27;20675;-60
2022/03/24 10:04:48;;;;;;;15.68;14.15;;;11.70;99.90;;;;;;5081086;28;20570;-59
2022/03/24 10:07:28;;;;;;;14.57;13.10;;;11.80;99.90;;;;;;5083378;27;20594;-59
2022/03/24 10:10:08;;;;;;;16.30;13.88;;;12.00;99.90;;;;;;5082293;27;20539;-60
2022/03/24 10:12:47;;;;;;;14.57;13.20;;;12.20;99.90;;;;;;5084396;27;20552;-60
2022/03/24 10:15:26;;;;;;;14.30;12.90;;;12.30;93.40;;;;;;5104697;27;20545;-60
2022/03/24 10:18:16;;;;;;;17.05;13.77;;;12.40;85.70;;;;;;5145883;27;21198;-60
2022/03/24 10:20:56;;;;;;;14.52;13.25;;;12.70;84.60;;;;;;5103836;27;20546;-61
2022/03/24 10:23:44;;;;;;;13.60;12.40;;;12.80;79.60;;;;;;5102201;27;20565;-59
2022/03/24 10:26:23;;;;;;;14.27;11.70;;;12.90;65.30;;;;;;5088015;27;20585;-59
2022/03/24 10:29:04;;;;;;;14.18;12.75;;;13.00;65.60;;;;;;5082834;27;20557;-60
2022/03/24 10:31:43;;;;;;;12.95;11.93;;;13.20;58.10;;;;;;5072370;27;20576;-60
2022/03/24 10:34:31;;;;;;;11.80;10.80;;;13.30;57.40;;;;;;5104835;27;20538;-59
2022/03/24 10:37:12;;;;;;;13.32;12.10;;;13.30;56.30;;;;;;5084350;27;20569;-59
2022/03/24 10:40:02;;;;;;;12.25;10.98;;;13.40;59.50;;;;;;5101906;27;20557;-59
2022/03/24 10:42:42;;;;;;;10.75;9.85;;;13.50;56.50;;;;;;5105163;27;21028;-60
2022/03/24 10:45:23;;;;;;;11.85;10.75;;;13.60;52.80;;;;;;5081240;27;20970;-59
2022/03/24 10:48:06;;;;;;;11.48;10.48;;;13.70;45.20;;;;;;5083221;27;20562;-60
2022/03/24 10:50:46;;;;;;;10.68;9.68;;;13.70;46.60;;;;;;5079744;27;20582;-59
2022/03/24 10:53:26;;;;;;;9.32;8.63;;;13.80;40.80;;;;;;5105446;27;21019;-60
2022/03/24 10:56:12;;;;;;;7.95;7.28;;;14.00;39.10;;;;;;5123804;27;20544;-59
2022/03/24 10:58:56;;;;;;;7.43;6.78;;;14.10;32.80;;;;;;5104908;27;20583;-61
2022/03/24 11:01:36;;;;;;;12.40;8.10;;;14.10;33.30;;;;;;5104739;27;20622;-60
2022/03/24 11:04:18;;;;;;;7.72;7.00;;;14.10;35.80;;;;;;5083202;28;20562;-60
2022/03/24 11:06:58;;;;;;;7.13;6.53;;;14.00;32.70;;;;;;5104154;27;20574;-59
2022/03/24 11:09:38;;;;;;;7.60;6.90;;;14.10;31.50;;;;;;5103599;27;20614;-60
2022/03/24 11:12:31;;;;;;;9.75;8.20;;;14.20;33.20;;;;;;5084466;27;20558;-59
2022/03/24 11:15:12;;;;;;;9.35;7.25;;;14.20;32.00;;;;;;5105533;27;20579;-57
2022/03/24 11:17:51;;;;;;;15.45;8.05;;;14.20;34.40;;;;;;5125284;27;20532;-59
2022/03/24 11:20:38;;;;;;;8.40;7.57;;;14.40;31.00;;;;;;5145760;27;20591;-57
2022/03/24 11:23:35;;;;;;;8.65;7.78;;;14.50;30.60;;;;;;5084856;27;20577;-59
2022/03/24 11:26:15;;;;;;;8.02;7.32;;;14.40;31.20;;;;;;5105099;27;21127;-59
2022/03/24 11:28:57;;;;;;;8.43;7.68;;;14.40;32.00;;;;;;5084751;27;20579;-59
2022/03/24 11:31:36;;;;;;;8.32;7.57;;;14.60;29.90;;;;;;5125712;27;21100;-58
2022/03/24 11:34:19;;;;;;;7.47;6.88;;;14.60;29.80;;;;;;5145563;27;20542;-59
2022/03/24 11:37:00;;;;;;;8.30;7.75;;;14.70;31.00;;;;;;5146230;27;20538;-59
2022/03/24 11:40:05;;;;;;;7.55;6.95;;;14.90;30.20;;;;;;5080935;27;20584;-59
2022/03/24 11:42:50;;;;;;;8.80;8.00;;;15.00;28.40;;;;;;5104233;27;20549;-59
2022/03/24 11:45:36;;;;;;;13.68;9.15;;;15.00;29.40;;;;;;5124869;27;20563;-59
2022/03/24 11:48:15;;;;;;;9.45;8.45;;;15.10;31.90;;;;;;5104582;27;20541;-59
2022/03/24 11:50:55;;;;;;;9.38;8.55;;;15.20;30.90;;;;;;5124891;27;20552;-59
2022/03/24 11:53:39;;;;;;;8.80;8.10;;;15.20;32.30;;;;;;5105164;27;20983;-60
2022/03/24 11:56:19;;;;;;;10.38;9.40;;;15.30;32.30;;;;;;5083170;27;20807;-59
2022/03/24 11:59:21;;;;;;;9.45;8.68;;;15.20;30.90;;;;;;5084186;27;20551;-59
2022/03/24 12:02:18;;;;;;;10.55;8.30;;;15.20;31.60;;;;;;5105199;27;20550;-59
2022/03/24 12:04:59;;;;;;;9.02;8.32;;;15.20;30.70;;;;;;5101557;27;20984;-59
2022/03/24 12:07:39;;;;;;;9.48;8.57;;;15.20;30.80;;;;;;5083652;28;20560;-59
2022/03/24 12:10:31;;;;;;;8.52;7.82;;;15.20;32.10;;;;;;5083215;28;20591;-59
2022/03/24 12:13:21;;;;;;;8.63;7.82;;;15.30;32.30;;;;;;5084731;27;20556;-59
2022/03/24 12:16:13;;;;;;;11.63;8.15;;;15.40;30.90;;;;;;5105511;27;20644;-59
2022/03/24 12:18:54;;;;;;;8.75;7.95;;;15.40;30.90;;;;;;5084261;27;20570;-59
2022/03/24 12:21:33;;;;;;;8.40;7.55;;;15.40;31.60;;;;;;5104888;27;20555;-59
2022/03/24 12:24:17;;;;;;;15.43;8.60;;;15.40;32.70;;;;;;5084646;27;20562;-59
2022/03/24 12:26:59;;;;;;;8.02;7.43;;;15.50;32.10;;;;;;5105198;27;20658;-59
2022/03/24 12:29:39;;;;;;;8.52;7.82;;;15.70;30.10;;;;;;5083428;27;20589;-59
2022/03/24 12:32:29;;;;;;;8.38;7.63;;;15.70;30.00;;;;;;5084661;27;20585;-59
2022/03/24 12:35:09;;;;;;;7.50;6.90;;;15.70;30.00;;;;;;5084326;27;20560;-59
2022/03/24 12:37:49;;;;;;;7.35;6.75;;;15.70;28.80;;;;;;5084092;27;20577;-59
2022/03/24 12:40:29;;;;;;;9.32;7.75;;;15.70;27.90;;;;;;5103165;27;20631;-59
2022/03/24 12:43:09;;;;;;;8.00;7.30;;;15.70;28.80;;;;;;5084791;27;20548;-59
2022/03/24 12:45:49;;;;;;;7.53;6.93;;;15.60;28.80;;;;;;5081210;27;20798;-59
2022/03/24 12:48:39;;;;;;;8.73;8.02;;;15.60;29.10;;;;;;5082603;27;20687;-59
2022/03/24 12:51:20;;;;;;;8.50;7.78;;;15.80;29.50;;;;;;5083449;27;20723;-59
2022/03/24 12:54:02;;;;;;;8.35;7.65;;;16.00;29.20;;;;;;5104792;27;20558;-60
2022/03/24 12:56:43;;;;;;;9.32;7.43;;;16.00;28.20;;;;;;5082977;27;20569;-59
2022/03/24 12:59:22;;;;;;;8.35;7.68;;;16.00;28.80;;;;;;5083488;27;20543;-59
2022/03/24 13:02:02;;;;;;;9.50;8.68;;;15.90;28.40;;;;;;5104746;27;21013;-59
2022/03/24 13:04:47;;;;;;;9.68;8.80;;;15.90;29.20;;;;;;5104798;27;20970;-59
2022/03/24 13:07:28;;;;;;;9.88;8.68;;;15.90;29.10;;;;;;5125443;27;20531;-59
2022/03/24 13:10:12;;;;;;;10.70;8.23;;;16.00;28.70;;;;;;5082879;27;21129;-59
2022/03/24 13:12:54;;;;;;;9.52;8.73;;;16.00;28.00;;;;;;5083990;27;21036;-59
2022/03/24 13:15:37;;;;;;;7.80;7.22;;;15.90;28.40;;;;;;5081348;27;20589;-59
2022/03/24 13:18:17;;;;;;;8.73;7.93;;;16.00;28.30;;;;;;5082372;27;20543;-59
2022/03/24 13:20:57;;;;;;;10.23;9.32;;;16.00;27.90;;;;;;5097603;27;21333;-60
2022/03/24 13:23:37;;;;;;;8.77;8.02;;;16.00;28.70;;;;;;5144583;27;20538;-59
2022/03/24 13:26:21;;;;;;;9.40;8.60;;;16.10;27.70;;;;;;5083494;27;20573;-59
2022/03/24 13:29:01;;;;;;;8.75;7.75;;;16.10;27.70;;;;;;5083422;27;20577;-57
2022/03/24 13:31:41;;;;;;;8.55;7.95;;;16.20;27.10;;;;;;5104859;27;20573;-59
2022/03/24 13:34:21;;;;;;;8.70;7.95;;;16.30;27.70;;;;;;5081815;27;20558;-59
2022/03/24 13:37:11;;;;;;;9.18;8.45;;;16.30;27.40;;;;;;5103825;27;20546;-59
2022/03/24 13:39:54;;;;;;;9.57;8.73;;;16.30;27.90;;;;;;5082351;27;20605;-59
2022/03/24 13:42:34;;;;;;;9.90;9.05;;;16.20;28.20;;;;;;5104577;27;20570;-59
2022/03/24 13:45:14;;;;;;;9.55;8.75;;;16.10;28.00;;;;;;5125241;27;21060;-59
2022/03/24 13:47:56;;;;;;;8.95;8.15;;;16.10;28.40;;;;;;5145707;27;20846;-59
2022/03/24 13:50:38;;;;;;;9.52;8.10;;;16.10;28.60;;;;;;5104269;27;20525;-59